sensor_id;sensor_type;location;lat;lon;timestamp;temperature;humidity
22813;DHT22;11573;51.334;3.244;2024-03-22T00:01:49;10.60;99.90
22813;DHT22;11573;51.334;3.244;2024-03-22T00:04:16;10.70;99.90
22813;DHT22;11573;51.334;3.244;2024-03-22T00:06:43;10.70;99.90
22813;DHT22;11573;51.334;3.244;2024-03-22T00:09:10;10.60;99.90
22813;DHT22;11573;51.334;3.244;2024-03-22T00:11:39;10.60;99.90
22813;DHT22;11573;51.334;3.244;2024-03-22T00:14:05;10.60;99.90
22813;DHT22;11573;51.334;3.244;2024-03-22T00:16:31;10.60;99.90
22813;DHT22;11573;51.334;3.244;2024-03-22T00:18:57;10.60;99.90
22813;DHT22;11573;51.334;3.244;2024-03-22T00:21:23;10.60;99.90
22813;DHT22;11573;51.334;3.244;2024-03-22T00:23:49;10.60;99.90
22813;DHT22;11573;51.334;3.244;2024-03-22T00:26:16;10.60;99.90
22813;DHT22;11573;51.334;3.244;2024-03-22T00:28:42;10.60;99.90
22813;DHT22;11573;51.334;3.244;2024-03-22T00:31:08;10.60;99.90
22813;DHT22;11573;51.334;3.244;2024-03-22T00:33:35;10.60;99.90
22813;DHT22;11573;51.334;3.244;2024-03-22T00:36:01;10.50;99.90
22813;DHT22;11573;51.334;3.244;2024-03-22T00:38:27;10.50;99.90
22813;DHT22;11573;51.334;3.244;2024-03-22T00:40:53;10.60;99.90
22813;DHT22;11573;51.334;3.244;2024-03-22T00:43:22;10.60;99.90
22813;DHT22;11573;51.334;3.244;2024-03-22T00:45:48;10.50;99.90
22813;DHT22;11573;51.334;3.244;2024-03-22T00:48:14;10.50;99.90
22813;DHT22;11573;51.334;3.244;2024-03-22T00:50:40;10.40;99.90
22813;DHT22;11573;51.334;3.244;2024-03-22T00:53:06;10.40;99.90
22813;DHT22;11573;51.334;3.244;2024-03-22T00:55:34;10.40;99.90
22813;DHT22;11573;51.334;3.244;2024-03-22T00:58:00;10.40;99.90
22813;DHT22;11573;51.334;3.244;2024-03-22T01:00:26;10.30;99.90
22813;DHT22;11573;51.334;3.244;2024-03-22T01:02:52;10.30;99.90
22813;DHT22;11573;51.334;3.244;2024-03-22T01:05:18;10.30;99.90
22813;DHT22;11573;51.334;3.244;2024-03-22T01:07:44;10.20;99.90
22813;DHT22;11573;51.334;3.244;2024-03-22T01:10:11;10.20;99.90
22813;DHT22;11573;51.334;3.244;2024-03-22T01:12:37;10.30;99.90
22813;DHT22;11573;51.334;3.244;2024-03-22T01:15:05;10.20;99.90
22813;DHT22;11573;51.334;3.244;2024-03-22T01:17:32;10.20;99.90
22813;DHT22;11573;51.334;3.244;2024-03-22T01:19:58;10.30;99.90
22813;DHT22;11573;51.334;3.244;2024-03-22T01:22:24;10.30;99.90
22813;DHT22;11573;51.334;3.244;2024-03-22T01:24:50;10.30;99.90
22813;DHT22;11573;51.334;3.244;2024-03-22T01:27:16;10.30;99.90
22813;DHT22;11573;51.334;3.244;2024-03-22T01:29:42;10.30;99.90
22813;DHT22;11573;51.334;3.244;2024-03-22T01:32:08;10.30;99.90
22813;DHT22;11573;51.334;3.244;2024-03-22T01:34:34;10.30;99.90
22813;DHT22;11573;51.334;3.244;2024-03-22T01:37:01;10.40;99.90
22813;DHT22;11573;51.334;3.244;2024-03-22T01:39:27;10.40;99.90
22813;DHT22;11573;51.334;3.244;2024-03-22T01:41:53;10.40;99.90
22813;DHT22;11573;51.334;3.244;2024-03-22T01:44:19;10.40;99.90
22813;DHT22;11573;51.334;3.244;2024-03-22T01:46:46;10.40;99.90
22813;DHT22;11573;51.334;3.244;2024-03-22T01:49:15;10.40;99.90
22813;DHT22;11573;51.334;3.244;2024-03-22T01:51:42;10.40;99.90
22813;DHT22;11573;51.334;3.244;2024-03-22T01:54:09;10.50;99.90
22813;DHT22;11573;51.334;3.244;2024-03-22T01:56:39;10.50;99.90
22813;DHT22;11573;51.334;3.244;2024-03-22T01:59:05;10.40;99.90
22813;DHT22;11573;51.334;3.244;2024-03-22T02:01:32;10.40;99.90
22813;DHT22;11573;51.334;3.244;2024-03-22T02:03:59;10.50;99.90
22813;DHT22;11573;51.334;3.244;2024-03-22T02:06:25;10.50;99.90
22813;DHT22;11573;51.334;3.244;2024-03-22T02:08:51;10.50;99.90
22813;DHT22;11573;51.334;3.244;2024-03-22T02:11:17;10.60;99.90
22813;DHT22;11573;51.334;3.244;2024-03-22T02:13:43;10.50;99.90
22813;DHT22;11573;51.334;3.244;2024-03-22T02:16:09;10.50;99.90
22813;DHT22;11573;51.334;3.244;2024-03-22T02:18:35;10.50;99.90
22813;DHT22;11573;51.334;3.244;2024-03-22T02:21:01;10.50;99.90
22813;DHT22;11573;51.334;3.244;2024-03-22T02:23:34;10.40;99.90
22813;DHT22;11573;51.334;3.244;2024-03-22T02:26:02;10.40;99.90
22813;DHT22;11573;51.334;3.244;2024-03-22T02:28:28;10.50;99.90
22813;DHT22;11573;51.334;3.244;2024-03-22T02:30:54;10.40;99.90
22813;DHT22;11573;51.334;3.244;2024-03-22T02:33:20;10.40;99.90
22813;DHT22;11573;51.334;3.244;2024-03-22T02:35:47;10.40;99.90
22813;DHT22;11573;51.334;3.244;2024-03-22T02:38:13;10.40;99.90
22813;DHT22;11573;51.334;3.244;2024-03-22T02:40:39;10.30;99.90
22813;DHT22;11573;51.334;3.244;2024-03-22T02:43:06;10.30;99.90
22813;DHT22;11573;51.334;3.244;2024-03-22T02:45:32;10.40;99.90
22813;DHT22;11573;51.334;3.244;2024-03-22T02:47:58;10.30;99.90
22813;DHT22;11573;51.334;3.244;2024-03-22T02:50:24;10.40;99.90
22813;DHT22;11573;51.334;3.244;2024-03-22T02:52:50;10.40;99.90
22813;DHT22;11573;51.334;3.244;2024-03-22T02:55:16;10.40;99.90
22813;DHT22;11573;51.334;3.244;2024-03-22T02:57:43;10.30;99.90
22813;DHT22;11573;51.334;3.244;2024-03-22T03:00:09;10.30;99.90
22813;DHT22;11573;51.334;3.244;2024-03-22T03:02:35;10.30;99.90
22813;DHT22;11573;51.334;3.244;2024-03-22T03:05:02;10.30;99.90
22813;DHT22;11573;51.334;3.244;2024-03-22T03:07:28;10.30;99.90
22813;DHT22;11573;51.334;3.244;2024-03-22T03:09:54;10.30;99.90
22813;DHT22;11573;51.334;3.244;2024-03-22T03:12:20;10.40;99.90
22813;DHT22;11573;51.334;3.244;2024-03-22T03:14:46;10.40;99.90
22813;DHT22;11573;51.334;3.244;2024-03-22T03:17:12;10.40;99.90
22813;DHT22;11573;51.334;3.244;2024-03-22T03:19:38;10.40;99.90
22813;DHT22;11573;51.334;3.244;2024-03-22T03:22:04;10.40;99.90
22813;DHT22;11573;51.334;3.244;2024-03-22T03:24:30;10.40;99.90
22813;DHT22;11573;51.334;3.244;2024-03-22T03:26:56;10.40;99.90
22813;DHT22;11573;51.334;3.244;2024-03-22T03:29:22;10.40;99.90
22813;DHT22;11573;51.334;3.244;2024-03-22T03:31:48;10.40;99.90
22813;DHT22;11573;51.334;3.244;2024-03-22T03:34:15;10.40;99.90
22813;DHT22;11573;51.334;3.244;2024-03-22T03:36:41;10.40;99.90
22813;DHT22;11573;51.334;3.244;2024-03-22T03:39:07;10.40;99.90
22813;DHT22;11573;51.334;3.244;2024-03-22T03:41:33;10.40;99.90
22813;DHT22;11573;51.334;3.244;2024-03-22T03:43:59;10.40;99.90
22813;DHT22;11573;51.334;3.244;2024-03-22T03:46:25;10.40;99.90
22813;DHT22;11573;51.334;3.244;2024-03-22T03:48:51;10.40;99.90
22813;DHT22;11573;51.334;3.244;2024-03-22T03:51:17;10.40;99.90
22813;DHT22;11573;51.334;3.244;2024-03-22T03:53:43;10.40;99.90
22813;DHT22;11573;51.334;3.244;2024-03-22T03:56:09;10.40;99.90
22813;DHT22;11573;51.334;3.244;2024-03-22T03:58:35;10.50;99.90
22813;DHT22;11573;51.334;3.244;2024-03-22T04:01:08;10.50;99.90
22813;DHT22;11573;51.334;3.244;2024-03-22T04:03:35;10.50;99.90
22813;DHT22;11573;51.334;3.244;2024-03-22T04:06:01;10.50;99.90
22813;DHT22;11573;51.334;3.244;2024-03-22T04:08:27;10.40;99.90
22813;DHT22;11573;51.334;3.244;2024-03-22T04:10:54;10.40;99.90
22813;DHT22;11573;51.334;3.244;2024-03-22T04:13:27;10.40;99.90
22813;DHT22;11573;51.334;3.244;2024-03-22T04:15:53;10.40;99.90
22813;DHT22;11573;51.334;3.244;2024-03-22T04:18:19;10.40;99.90
22813;DHT22;11573;51.334;3.244;2024-03-22T04:20:56;10.40;99.90
22813;DHT22;11573;51.334;3.244;2024-03-22T04:23:23;10.40;99.90
22813;DHT22;11573;51.334;3.244;2024-03-22T04:25:57;10.40;99.90
22813;DHT22;11573;51.334;3.244;2024-03-22T04:28:25;10.40;99.90
22813;DHT22;11573;51.334;3.244;2024-03-22T04:33:24;10.30;99.90
22813;DHT22;11573;51.334;3.244;2024-03-22T04:35:50;10.30;99.90
22813;DHT22;11573;51.334;3.244;2024-03-22T04:38:17;10.30;99.90
22813;DHT22;11573;51.334;3.244;2024-03-22T04:40:43;10.30;99.90
22813;DHT22;11573;51.334;3.244;2024-03-22T04:43:09;10.30;99.90
22813;DHT22;11573;51.334;3.244;2024-03-22T04:45:35;10.30;99.90
22813;DHT22;11573;51.334;3.244;2024-03-22T04:48:03;10.30;99.90
22813;DHT22;11573;51.334;3.244;2024-03-22T04:50:29;10.30;99.90
22813;DHT22;11573;51.334;3.244;2024-03-22T04:52:55;10.40;99.90
22813;DHT22;11573;51.334;3.244;2024-03-22T04:55:21;10.40;99.90
22813;DHT22;11573;51.334;3.244;2024-03-22T04:57:47;10.40;99.90
22813;DHT22;11573;51.334;3.244;2024-03-22T05:00:13;10.40;99.90
22813;DHT22;11573;51.334;3.244;2024-03-22T05:02:39;10.40;99.90
22813;DHT22;11573;51.334;3.244;2024-03-22T05:05:06;10.40;99.90
22813;DHT22;11573;51.334;3.244;2024-03-22T05:07:33;10.40;99.90
22813;DHT22;11573;51.334;3.244;2024-03-22T05:09:59;10.40;99.90
22813;DHT22;11573;51.334;3.244;2024-03-22T05:12:25;10.40;99.90
22813;DHT22;11573;51.334;3.244;2024-03-22T05:14:51;10.40;99.90
22813;DHT22;11573;51.334;3.244;2024-03-22T05:17:17;10.30;99.90
22813;DHT22;11573;51.334;3.244;2024-03-22T05:19:43;10.30;99.90
22813;DHT22;11573;51.334;3.244;2024-03-22T05:22:09;10.40;99.90
22813;DHT22;11573;51.334;3.244;2024-03-22T05:24:35;10.30;99.90
22813;DHT22;11573;51.334;3.244;2024-03-22T05:27:01;10.40;99.90
22813;DHT22;11573;51.334;3.244;2024-03-22T05:29:27;10.40;99.90
22813;DHT22;11573;51.334;3.244;2024-03-22T05:31:53;10.40;99.90
22813;DHT22;11573;51.334;3.244;2024-03-22T05:34:19;10.40;99.90
22813;DHT22;11573;51.334;3.244;2024-03-22T05:36:45;10.40;99.90
22813;DHT22;11573;51.334;3.244;2024-03-22T05:39:12;10.50;99.90
22813;DHT22;11573;51.334;3.244;2024-03-22T05:41:38;10.40;99.90
22813;DHT22;11573;51.334;3.244;2024-03-22T05:44:04;10.40;99.90
22813;DHT22;11573;51.334;3.244;2024-03-22T05:46:30;10.50;99.90
22813;DHT22;11573;51.334;3.244;2024-03-22T05:48:57;10.50;99.90
22813;DHT22;11573;51.334;3.244;2024-03-22T05:51:27;10.50;99.90
22813;DHT22;11573;51.334;3.244;2024-03-22T05:53:53;10.40;99.90
22813;DHT22;11573;51.334;3.244;2024-03-22T05:56:19;10.40;99.90
22813;DHT22;11573;51.334;3.244;2024-03-22T05:58:45;10.40;99.90
22813;DHT22;11573;51.334;3.244;2024-03-22T06:01:11;10.40;99.90
22813;DHT22;11573;51.334;3.244;2024-03-22T06:03:37;10.40;99.90
22813;DHT22;11573;51.334;3.244;2024-03-22T06:06:03;10.50;99.90
22813;DHT22;11573;51.334;3.244;2024-03-22T06:08:29;10.50;99.90
22813;DHT22;11573;51.334;3.244;2024-03-22T06:10:57;10.50;99.90
22813;DHT22;11573;51.334;3.244;2024-03-22T06:13:23;10.50;99.90
22813;DHT22;11573;51.334;3.244;2024-03-22T06:15:49;10.50;99.90
22813;DHT22;11573;51.334;3.244;2024-03-22T06:18:15;10.50;99.90
22813;DHT22;11573;51.334;3.244;2024-03-22T06:20:42;10.50;99.90
22813;DHT22;11573;51.334;3.244;2024-03-22T06:23:08;10.50;99.90
22813;DHT22;11573;51.334;3.244;2024-03-22T06:25:34;10.60;99.90
22813;DHT22;11573;51.334;3.244;2024-03-22T06:28:00;10.50;99.90
22813;DHT22;11573;51.334;3.244;2024-03-22T06:30:26;10.50;99.90
22813;DHT22;11573;51.334;3.244;2024-03-22T06:32:53;10.60;99.90
22813;DHT22;11573;51.334;3.244;2024-03-22T06:35:21;10.60;99.90
22813;DHT22;11573;51.334;3.244;2024-03-22T06:37:47;10.60;99.90
22813;DHT22;11573;51.334;3.244;2024-03-22T06:40:14;10.60;99.90
22813;DHT22;11573;51.334;3.244;2024-03-22T06:42:41;10.60;99.90
22813;DHT22;11573;51.334;3.244;2024-03-22T06:45:07;10.50;99.90
22813;DHT22;11573;51.334;3.244;2024-03-22T06:47:33;10.60;99.90
22813;DHT22;11573;51.334;3.244;2024-03-22T06:49:59;10.70;99.90
22813;DHT22;11573;51.334;3.244;2024-03-22T06:52:25;10.70;99.90
22813;DHT22;11573;51.334;3.244;2024-03-22T06:54:51;10.80;99.90
22813;DHT22;11573;51.334;3.244;2024-03-22T06:57:19;10.90;99.90
22813;DHT22;11573;51.334;3.244;2024-03-22T06:59:45;11.10;99.90
22813;DHT22;11573;51.334;3.244;2024-03-22T07:02:10;11.20;99.90
22813;DHT22;11573;51.334;3.244;2024-03-22T07:04:38;11.20;99.90
22813;DHT22;11573;51.334;3.244;2024-03-22T07:07:04;11.30;99.90
22813;DHT22;11573;51.334;3.244;2024-03-22T07:09:33;11.30;99.90
22813;DHT22;11573;51.334;3.244;2024-03-22T07:11:59;11.30;99.90
22813;DHT22;11573;51.334;3.244;2024-03-22T07:14:25;11.20;99.90
22813;DHT22;11573;51.334;3.244;2024-03-22T07:16:51;11.10;99.90
22813;DHT22;11573;51.334;3.244;2024-03-22T07:19:20;11.20;99.90
22813;DHT22;11573;51.334;3.244;2024-03-22T07:21:49;11.10;99.90
22813;DHT22;11573;51.334;3.244;2024-03-22T07:24:15;11.20;99.90
22813;DHT22;11573;51.334;3.244;2024-03-22T07:26:41;11.20;99.90
22813;DHT22;11573;51.334;3.244;2024-03-22T07:29:07;11.20;99.90
22813;DHT22;11573;51.334;3.244;2024-03-22T07:31:33;11.20;99.90
22813;DHT22;11573;51.334;3.244;2024-03-22T07:33:59;11.30;99.90
22813;DHT22;11573;51.334;3.244;2024-03-22T07:36:25;11.30;99.90
22813;DHT22;11573;51.334;3.244;2024-03-22T07:38:52;11.30;99.90
22813;DHT22;11573;51.334;3.244;2024-03-22T07:41:18;11.40;99.90
22813;DHT22;11573;51.334;3.244;2024-03-22T07:43:44;11.30;99.90
22813;DHT22;11573;51.334;3.244;2024-03-22T07:46:10;11.50;99.90
22813;DHT22;11573;51.334;3.244;2024-03-22T07:48:37;11.30;99.90
22813;DHT22;11573;51.334;3.244;2024-03-22T07:51:03;11.30;99.90
22813;DHT22;11573;51.334;3.244;2024-03-22T07:53:29;11.30;99.90
22813;DHT22;11573;51.334;3.244;2024-03-22T07:55:55;11.30;99.90
22813;DHT22;11573;51.334;3.244;2024-03-22T07:58:22;11.40;99.90
22813;DHT22;11573;51.334;3.244;2024-03-22T08:00:48;11.40;99.90
22813;DHT22;11573;51.334;3.244;2024-03-22T08:03:15;11.30;99.90
22813;DHT22;11573;51.334;3.244;2024-03-22T08:05:42;11.40;99.90
22813;DHT22;11573;51.334;3.244;2024-03-22T08:08:08;11.30;99.90
22813;DHT22;11573;51.334;3.244;2024-03-22T08:10:34;11.20;99.90
22813;DHT22;11573;51.334;3.244;2024-03-22T08:13:00;11.30;99.90
22813;DHT22;11573;51.334;3.244;2024-03-22T08:15:29;11.40;99.90
22813;DHT22;11573;51.334;3.244;2024-03-22T08:17:55;11.40;99.90
22813;DHT22;11573;51.334;3.244;2024-03-22T08:20:24;11.40;99.90
22813;DHT22;11573;51.334;3.244;2024-03-22T08:22:50;11.30;99.90
22813;DHT22;11573;51.334;3.244;2024-03-22T08:25:16;11.10;99.90
22813;DHT22;11573;51.334;3.244;2024-03-22T08:27:43;11.10;99.90
22813;DHT22;11573;51.334;3.244;2024-03-22T08:30:10;11.10;99.90
22813;DHT22;11573;51.334;3.244;2024-03-22T08:32:37;11.20;99.90
22813;DHT22;11573;51.334;3.244;2024-03-22T08:35:03;11.30;99.90
22813;DHT22;11573;51.334;3.244;2024-03-22T08:37:33;11.30;99.90
22813;DHT22;11573;51.334;3.244;2024-03-22T08:39:59;11.30;99.90
22813;DHT22;11573;51.334;3.244;2024-03-22T08:42:25;11.30;99.90
22813;DHT22;11573;51.334;3.244;2024-03-22T08:44:51;11.30;99.90
22813;DHT22;11573;51.334;3.244;2024-03-22T08:47:17;11.30;99.90
22813;DHT22;11573;51.334;3.244;2024-03-22T08:49:43;11.30;99.90
22813;DHT22;11573;51.334;3.244;2024-03-22T08:52:11;11.50;99.90
22813;DHT22;11573;51.334;3.244;2024-03-22T08:54:37;11.50;99.90
22813;DHT22;11573;51.334;3.244;2024-03-22T08:57:03;11.60;99.90
22813;DHT22;11573;51.334;3.244;2024-03-22T08:59:29;11.60;99.90
22813;DHT22;11573;51.334;3.244;2024-03-22T09:01:55;11.50;99.90
22813;DHT22;11573;51.334;3.244;2024-03-22T09:04:21;11.50;99.90
22813;DHT22;11573;51.334;3.244;2024-03-22T09:06:47;11.50;99.90
22813;DHT22;11573;51.334;3.244;2024-03-22T09:09:13;11.50;99.90
22813;DHT22;11573;51.334;3.244;2024-03-22T09:11:39;11.50;99.90
22813;DHT22;11573;51.334;3.244;2024-03-22T09:14:05;11.60;99.90
22813;DHT22;11573;51.334;3.244;2024-03-22T09:16:31;11.60;99.90
22813;DHT22;11573;51.334;3.244;2024-03-22T09:18:58;11.60;99.90
22813;DHT22;11573;51.334;3.244;2024-03-22T09:21:24;11.60;99.90
22813;DHT22;11573;51.334;3.244;2024-03-22T09:23:50;11.60;99.90
22813;DHT22;11573;51.334;3.244;2024-03-22T09:26:16;11.50;99.90
22813;DHT22;11573;51.334;3.244;2024-03-22T09:28:42;11.50;99.90
22813;DHT22;11573;51.334;3.244;2024-03-22T09:31:11;11.40;99.90
22813;DHT22;11573;51.334;3.244;2024-03-22T09:33:37;11.40;99.90
22813;DHT22;11573;51.334;3.244;2024-03-22T09:36:03;11.30;99.90
22813;DHT22;11573;51.334;3.244;2024-03-22T09:38:29;11.40;99.90
22813;DHT22;11573;51.334;3.244;2024-03-22T09:40:55;11.30;99.90
22813;DHT22;11573;51.334;3.244;2024-03-22T09:43:22;11.20;99.90
22813;DHT22;11573;51.334;3.244;2024-03-22T09:45:49;11.20;99.90
22813;DHT22;11573;51.334;3.244;2024-03-22T09:48:18;11.10;99.90
22813;DHT22;11573;51.334;3.244;2024-03-22T09:50:48;11.00;99.90
22813;DHT22;11573;51.334;3.244;2024-03-22T09:53:18;11.00;99.90
22813;DHT22;11573;51.334;3.244;2024-03-22T09:55:46;11.00;99.90
22813;DHT22;11573;51.334;3.244;2024-03-22T09:58:13;11.00;99.90
22813;DHT22;11573;51.334;3.244;2024-03-22T10:00:40;11.00;99.90
22813;DHT22;11573;51.334;3.244;2024-03-22T10:03:09;10.90;99.90
22813;DHT22;11573;51.334;3.244;2024-03-22T10:05:36;10.90;99.90
22813;DHT22;11573;51.334;3.244;2024-03-22T10:08:05;10.90;99.90
22813;DHT22;11573;51.334;3.244;2024-03-22T10:10:32;10.90;99.90
22813;DHT22;11573;51.334;3.244;2024-03-22T10:13:03;11.00;99.90
22813;DHT22;11573;51.334;3.244;2024-03-22T10:15:30;10.90;99.90
22813;DHT22;11573;51.334;3.244;2024-03-22T10:17:59;11.00;99.90
22813;DHT22;11573;51.334;3.244;2024-03-22T10:20:25;11.00;99.90
22813;DHT22;11573;51.334;3.244;2024-03-22T10:22:59;11.00;99.90
22813;DHT22;11573;51.334;3.244;2024-03-22T10:25:26;11.10;99.90
22813;DHT22;11573;51.334;3.244;2024-03-22T10:27:56;11.10;99.90
22813;DHT22;11573;51.334;3.244;2024-03-22T10:30:24;11.20;99.90
22813;DHT22;11573;51.334;3.244;2024-03-22T10:32:50;11.10;99.90
22813;DHT22;11573;51.334;3.244;2024-03-22T10:35:17;11.10;99.90
22813;DHT22;11573;51.334;3.244;2024-03-22T10:37:44;11.00;99.90
22813;DHT22;11573;51.334;3.244;2024-03-22T10:40:10;11.00;99.90
22813;DHT22;11573;51.334;3.244;2024-03-22T10:42:38;11.00;99.90
22813;DHT22;11573;51.334;3.244;2024-03-22T10:45:13;11.00;99.90
22813;DHT22;11573;51.334;3.244;2024-03-22T10:47:39;11.00;99.90
22813;DHT22;11573;51.334;3.244;2024-03-22T10:50:12;11.00;99.90
22813;DHT22;11573;51.334;3.244;2024-03-22T10:52:51;11.10;99.90
22813;DHT22;11573;51.334;3.244;2024-03-22T10:55:35;11.00;99.90
22813;DHT22;11573;51.334;3.244;2024-03-22T10:58:03;11.00;99.90
22813;DHT22;11573;51.334;3.244;2024-03-22T11:00:33;10.90;99.90
22813;DHT22;11573;51.334;3.244;2024-03-22T11:03:02;10.90;99.90
22813;DHT22;11573;51.334;3.244;2024-03-22T11:05:28;11.00;99.90
22813;DHT22;11573;51.334;3.244;2024-03-22T11:08:04;11.00;99.90
22813;DHT22;11573;51.334;3.244;2024-03-22T11:10:34;10.90;99.90
22813;DHT22;11573;51.334;3.244;2024-03-22T11:13:04;10.80;99.90
22813;DHT22;11573;51.334;3.244;2024-03-22T11:15:31;10.80;99.90
22813;DHT22;11573;51.334;3.244;2024-03-22T11:17:57;10.80;99.90
22813;DHT22;11573;51.334;3.244;2024-03-22T11:20:25;10.90;99.90
22813;DHT22;11573;51.334;3.244;2024-03-22T11:22:52;10.90;99.90
22813;DHT22;11573;51.334;3.244;2024-03-22T11:25:19;10.80;99.90
22813;DHT22;11573;51.334;3.244;2024-03-22T11:27:46;10.90;99.90
22813;DHT22;11573;51.334;3.244;2024-03-22T11:30:12;10.90;99.90
22813;DHT22;11573;51.334;3.244;2024-03-22T11:32:39;11.00;99.90
22813;DHT22;11573;51.334;3.244;2024-03-22T11:35:12;11.00;99.90
22813;DHT22;11573;51.334;3.244;2024-03-22T11:37:39;11.00;99.90
22813;DHT22;11573;51.334;3.244;2024-03-22T11:40:08;11.00;99.90
22813;DHT22;11573;51.334;3.244;2024-03-22T11:42:47;11.00;99.90
22813;DHT22;11573;51.334;3.244;2024-03-22T11:45:16;11.00;99.90
22813;DHT22;11573;51.334;3.244;2024-03-22T11:47:44;10.90;99.90
22813;DHT22;11573;51.334;3.244;2024-03-22T11:50:12;10.90;99.90
22813;DHT22;11573;51.334;3.244;2024-03-22T11:52:44;11.00;99.90
22813;DHT22;11573;51.334;3.244;2024-03-22T11:55:13;11.10;99.90
22813;DHT22;11573;51.334;3.244;2024-03-22T11:57:39;11.20;99.90
22813;DHT22;11573;51.334;3.244;2024-03-22T12:00:06;11.40;99.90
22813;DHT22;11573;51.334;3.244;2024-03-22T12:02:38;11.50;99.90
22813;DHT22;11573;51.334;3.244;2024-03-22T12:05:05;11.40;99.90
22813;DHT22;11573;51.334;3.244;2024-03-22T12:07:32;11.40;99.90
22813;DHT22;11573;51.334;3.244;2024-03-22T12:09:58;11.40;99.90
22813;DHT22;11573;51.334;3.244;2024-03-22T12:12:24;11.20;99.90
22813;DHT22;11573;51.334;3.244;2024-03-22T12:14:51;11.20;99.90
22813;DHT22;11573;51.334;3.244;2024-03-22T12:17:17;11.20;99.90
22813;DHT22;11573;51.334;3.244;2024-03-22T12:19:43;11.20;99.90
22813;DHT22;11573;51.334;3.244;2024-03-22T12:22:10;11.30;99.90
22813;DHT22;11573;51.334;3.244;2024-03-22T12:24:36;11.30;99.90
22813;DHT22;11573;51.334;3.244;2024-03-22T12:27:03;11.30;99.90
22813;DHT22;11573;51.334;3.244;2024-03-22T12:29:31;11.40;99.90
22813;DHT22;11573;51.334;3.244;2024-03-22T12:31:57;11.40;99.90
22813;DHT22;11573;51.334;3.244;2024-03-22T12:34:26;11.30;99.90
22813;DHT22;11573;51.334;3.244;2024-03-22T12:36:52;11.30;99.90
22813;DHT22;11573;51.334;3.244;2024-03-22T12:39:18;11.40;99.90
22813;DHT22;11573;51.334;3.244;2024-03-22T12:41:44;11.20;99.90
22813;DHT22;11573;51.334;3.244;2024-03-22T12:44:10;11.40;99.90
22813;DHT22;11573;51.334;3.244;2024-03-22T12:46:36;11.30;99.90
22813;DHT22;11573;51.334;3.244;2024-03-22T12:49:02;11.40;99.90
22813;DHT22;11573;51.334;3.244;2024-03-22T12:51:28;11.40;99.90
22813;DHT22;11573;51.334;3.244;2024-03-22T12:53:54;11.50;99.90
22813;DHT22;11573;51.334;3.244;2024-03-22T12:56:21;11.50;99.90
22813;DHT22;11573;51.334;3.244;2024-03-22T12:58:47;11.60;99.90
22813;DHT22;11573;51.334;3.244;2024-03-22T13:01:13;11.50;99.90
22813;DHT22;11573;51.334;3.244;2024-03-22T13:03:39;11.40;99.90
22813;DHT22;11573;51.334;3.244;2024-03-22T13:06:05;11.30;99.90
22813;DHT22;11573;51.334;3.244;2024-03-22T13:08:32;11.20;99.90
22813;DHT22;11573;51.334;3.244;2024-03-22T13:10:58;11.20;99.90
22813;DHT22;11573;51.334;3.244;2024-03-22T13:13:24;11.30;99.90
22813;DHT22;11573;51.334;3.244;2024-03-22T13:15:50;11.20;99.90
22813;DHT22;11573;51.334;3.244;2024-03-22T13:18:16;11.30;99.90
22813;DHT22;11573;51.334;3.244;2024-03-22T13:20:42;11.50;99.90
22813;DHT22;11573;51.334;3.244;2024-03-22T13:23:08;11.60;99.90
22813;DHT22;11573;51.334;3.244;2024-03-22T13:25:37;11.60;99.90
22813;DHT22;11573;51.334;3.244;2024-03-22T13:28:03;11.70;99.90
22813;DHT22;11573;51.334;3.244;2024-03-22T13:30:31;11.70;99.90
22813;DHT22;11573;51.334;3.244;2024-03-22T13:32:57;11.90;99.90
22813;DHT22;11573;51.334;3.244;2024-03-22T13:35:25;11.70;99.90
22813;DHT22;11573;51.334;3.244;2024-03-22T13:37:51;11.70;99.90
22813;DHT22;11573;51.334;3.244;2024-03-22T13:40:16;11.70;99.90
22813;DHT22;11573;51.334;3.244;2024-03-22T13:42:43;11.70;99.90
22813;DHT22;11573;51.334;3.244;2024-03-22T13:45:09;11.90;99.90
22813;DHT22;11573;51.334;3.244;2024-03-22T13:47:35;11.80;99.90
22813;DHT22;11573;51.334;3.244;2024-03-22T13:50:04;11.70;99.90
22813;DHT22;11573;51.334;3.244;2024-03-22T13:52:31;11.60;99.90
22813;DHT22;11573;51.334;3.244;2024-03-22T13:54:57;11.50;99.90
22813;DHT22;11573;51.334;3.244;2024-03-22T13:57:25;11.40;99.90
22813;DHT22;11573;51.334;3.244;2024-03-22T13:59:51;11.40;99.90
22813;DHT22;11573;51.334;3.244;2024-03-22T14:02:17;11.30;99.90
22813;DHT22;11573;51.334;3.244;2024-03-22T14:04:44;11.20;99.90
22813;DHT22;11573;51.334;3.244;2024-03-22T14:07:10;11.10;99.90
22813;DHT22;11573;51.334;3.244;2024-03-22T14:09:36;11.10;99.90
22813;DHT22;11573;51.334;3.244;2024-03-22T14:12:02;11.20;99.90
22813;DHT22;11573;51.334;3.244;2024-03-22T14:14:28;11.10;99.90
22813;DHT22;11573;51.334;3.244;2024-03-22T14:16:55;11.00;99.90
22813;DHT22;11573;51.334;3.244;2024-03-22T14:19:21;11.10;99.90
22813;DHT22;11573;51.334;3.244;2024-03-22T14:21:47;11.00;99.90
22813;DHT22;11573;51.334;3.244;2024-03-22T14:24:13;11.10;99.90
22813;DHT22;11573;51.334;3.244;2024-03-22T14:26:39;11.10;99.90
22813;DHT22;11573;51.334;3.244;2024-03-22T14:29:09;11.00;99.90
22813;DHT22;11573;51.334;3.244;2024-03-22T14:31:36;11.00;99.90
22813;DHT22;11573;51.334;3.244;2024-03-22T14:34:02;10.90;99.90
22813;DHT22;11573;51.334;3.244;2024-03-22T14:36:28;10.80;99.90
22813;DHT22;11573;51.334;3.244;2024-03-22T14:38:54;10.90;99.90
22813;DHT22;11573;51.334;3.244;2024-03-22T14:41:20;10.80;99.90
22813;DHT22;11573;51.334;3.244;2024-03-22T14:43:46;10.90;99.90
22813;DHT22;11573;51.334;3.244;2024-03-22T14:46:12;10.70;99.90
22813;DHT22;11573;51.334;3.244;2024-03-22T14:48:38;10.70;99.90
22813;DHT22;11573;51.334;3.244;2024-03-22T14:51:04;10.70;99.90
22813;DHT22;11573;51.334;3.244;2024-03-22T14:53:30;10.70;99.90
22813;DHT22;11573;51.334;3.244;2024-03-22T14:55:58;10.70;99.90
22813;DHT22;11573;51.334;3.244;2024-03-22T14:58:28;10.60;99.90
22813;DHT22;11573;51.334;3.244;2024-03-22T15:00:55;10.60;99.90
22813;DHT22;11573;51.334;3.244;2024-03-22T15:03:21;10.60;99.90
22813;DHT22;11573;51.334;3.244;2024-03-22T15:05:50;10.60;99.90
22813;DHT22;11573;51.334;3.244;2024-03-22T15:08:16;10.70;99.90
22813;DHT22;11573;51.334;3.244;2024-03-22T15:10:42;10.70;99.90
22813;DHT22;11573;51.334;3.244;2024-03-22T15:13:08;10.70;99.90
22813;DHT22;11573;51.334;3.244;2024-03-22T15:15:34;10.60;99.90
22813;DHT22;11573;51.334;3.244;2024-03-22T15:18:00;10.60;99.90
22813;DHT22;11573;51.334;3.244;2024-03-22T15:20:27;10.60;99.90
22813;DHT22;11573;51.334;3.244;2024-03-22T15:22:54;10.50;99.90
22813;DHT22;11573;51.334;3.244;2024-03-22T15:25:20;10.40;99.90
22813;DHT22;11573;51.334;3.244;2024-03-22T15:27:46;10.40;99.90
22813;DHT22;11573;51.334;3.244;2024-03-22T15:30:13;10.50;99.90